Time;durP1;ratioP1;P1;durP2;ratioP2;P2;SDS_P1;SDS_P2;PMS_P1;PMS_P2;Temp;Humidity;BMP_temperature;BMP_pressure;BME280_temperature;BME280_humidity;BME280_pressure;Samples;Min_cycle;Max_cycle;Signal;HPM_P1;HPM_P2
2024/02/23 00:01:06;;;;;;;;;;;6.30;99.90;;;-146.41;100.00;57768.22;5038008;28;1375;-67
2024/02/23 00:03:35;;;;;;;;;;;6.30;99.90;;;-146.41;100.00;57768.22;5034896;28;1392;-67
2024/02/23 00:06:03;;;;;;;;;;;6.20;99.90;;;-146.41;100.00;57768.22;5039811;28;1380;-68
2024/02/23 00:08:29;;;;;;;;;;;6.30;99.90;;;-146.41;100.00;57768.22;5051578;28;2012;-68
2024/02/23 00:10:56;;;;;;;;;;;6.20;99.90;;;-146.41;100.00;57768.22;5042250;28;1902;-69
2024/02/23 00:13:23;;;;;;;;;;;6.20;99.90;;;-146.41;100.00;57768.22;5038131;28;1399;-67
2024/02/23 00:15:51;;;;;;;;;;;6.20;99.90;;;-146.41;100.00;57768.22;5038660;28;1146;-67
2024/02/23 00:18:18;;;;;;;;;;;6.10;99.90;;;-146.41;100.00;57768.22;5037838;28;1339;-67
2024/02/23 00:20:46;;;;;;;;;;;6.10;99.90;;;-146.41;100.00;57768.22;5038717;28;3032;-68
2024/02/23 00:23:13;;;;;;;;;;;6.10;99.90;;;-146.41;100.00;57768.22;5040252;28;1333;-68
2024/02/23 00:25:41;;;;;;;;;;;6.10;99.90;;;-146.41;100.00;57768.22;5041985;28;1200;-67
2024/02/23 00:28:08;;;;;;;;;;;6.10;99.90;;;-146.41;100.00;57768.22;5042354;28;1697;-67
2024/02/23 00:30:35;;;;;;;;;;;6.10;99.90;;;-146.41;100.00;57768.22;5040541;28;1967;-68
2024/02/23 00:33:02;;;;;;;;;;;6.10;99.90;;;-146.41;100.00;57768.22;5036943;28;1403;-68
2024/02/23 00:35:29;;;;;;;;;;;6.00;99.90;;;-146.41;100.00;57768.22;5042155;28;2114;-68
2024/02/23 00:38:14;;;;;;;;;;;6.00;99.90;;;-146.41;100.00;57768.22;5042813;28;1419;-67
2024/02/23 00:40:40;;;;;;;;;;;6.00;99.90;;;-146.41;100.00;57768.22;5040395;28;1415;-67
2024/02/23 00:43:07;;;;;;;;;;;5.90;99.90;;;-146.41;100.00;57768.22;5038389;28;1598;-67
2024/02/23 00:45:34;;;;;;;;;;;5.90;99.90;;;-146.41;100.00;57768.22;5038834;28;1944;-68
2024/02/23 00:48:01;;;;;;;;;;;5.90;99.90;;;-146.41;100.00;57768.22;5039591;28;2801;-68
2024/02/23 00:50:28;;;;;;;;;;;;;;;-146.41;100.00;57768.22;5051724;28;1902;-67
2024/02/23 00:52:55;;;;;;;;;;;4.30;99.90;;;-146.41;100.00;57768.22;5041452;28;1460;-67
2024/02/23 00:55:25;;;;;;;;;;;3.40;99.90;;;-146.41;100.00;57768.22;5038963;28;1292;-66
2024/02/23 00:57:51;;;;;;;;;;;3.00;99.90;;;-146.41;100.00;57768.22;5037755;28;1411;-66
2024/02/23 01:00:18;;;;;;;;;;;2.70;99.90;;;-146.41;100.00;57768.22;5040478;28;3173;-66
2024/02/23 01:02:45;;;;;;;;;;;2.60;99.90;;;-146.41;100.00;57768.22;5035890;28;1376;-67
2024/02/23 01:05:13;;;;;;;;;;;2.50;99.90;;;-146.41;100.00;57768.22;5040039;28;1430;-67
2024/02/23 01:07:40;;;;;;;;;;;2.50;99.90;;;-146.41;100.00;57768.22;5037624;28;1351;-66
2024/02/23 01:10:07;;;;;;;;;;;2.70;99.90;;;-146.41;100.00;57768.22;5037677;28;2021;-66
2024/02/23 01:12:34;;;;;;;;;;;2.70;99.90;;;-146.41;100.00;57768.22;5039020;28;2162;-66
2024/02/23 01:15:01;;;;;;;;;;;2.80;99.90;;;-146.41;100.00;57768.22;5042509;28;1390;-66
2024/02/23 01:17:31;;;;;;;;;;;2.90;99.90;;;-146.41;100.00;57768.22;5039137;28;1286;-66
2024/02/23 01:19:58;;;;;;;;;;;3.00;99.90;;;-146.41;100.00;57768.22;5040489;28;1403;-66
2024/02/23 01:22:25;;;;;;;;;;;3.10;99.90;;;-146.41;100.00;57768.22;5038406;28;1983;-66
2024/02/23 01:24:52;;;;;;;;;;;3.20;99.90;;;-146.41;100.00;57768.22;5038428;28;1373;-66
2024/02/23 01:27:19;;;;;;;;;;;3.30;99.90;;;-146.41;100.00;57768.22;5039169;28;2615;-67
2024/02/23 01:29:45;;;;;;;;;;;3.30;99.90;;;-146.41;100.00;57768.22;5034972;28;1423;-67
2024/02/23 01:32:12;;;;;;;;;;;3.30;99.90;;;-146.41;100.00;57768.22;5038909;28;1906;-67
2024/02/23 01:34:39;;;;;;;;;;;3.40;99.90;;;-146.41;100.00;57768.22;5038480;28;1463;-67
2024/02/23 01:37:06;;;;;;;;;;;3.40;99.90;;;-146.41;100.00;57768.22;5038525;28;1688;-66
2024/02/23 01:39:32;;;;;;;;;;;3.40;99.90;;;-146.41;100.00;57768.22;5036399;28;2280;-66
2024/02/23 01:41:59;;;;;;;;;;;3.40;99.90;;;-146.41;100.00;57768.22;5040698;28;3135;-65
2024/02/23 01:44:26;;;;;;;;;;;3.40;99.90;;;-146.41;100.00;57768.22;5038554;28;1434;-66
2024/02/23 01:46:53;;;;;;;;;;;3.40;99.90;;;-146.41;100.00;57768.22;5039728;28;1335;-67
2024/02/23 01:49:20;;;;;;;;;;;3.40;99.90;;;-146.41;100.00;57768.22;5053553;28;1424;-67
2024/02/23 01:51:48;;;;;;;;;;;3.50;99.90;;;-146.41;100.00;57768.22;5038960;28;1981;-67
2024/02/23 01:54:16;;;;;;;;;;;3.50;99.90;;;-146.41;100.00;57768.22;5038403;28;1963;-67
2024/02/23 01:56:42;;;;;;;;;;;3.60;99.90;;;-146.41;100.00;57768.22;5039661;28;1995;-66
2024/02/23 01:59:10;;;;;;;;;;;3.60;99.90;;;-146.41;100.00;57768.22;5039149;28;1422;-67
2024/02/23 02:01:37;;;;;;;;;;;3.70;99.90;;;-146.41;100.00;57768.22;5025975;28;1928;-67
2024/02/23 02:04:03;;;;;;;;;;;3.70;99.90;;;-146.41;100.00;57768.22;5025371;28;1267;-66
2024/02/23 02:06:30;;;;;;;;;;;3.80;99.90;;;-146.41;100.00;57768.22;5043004;28;1325;-67
2024/02/23 02:08:57;;;;;;;;;;;3.80;99.90;;;-146.41;100.00;57768.22;5059345;28;2380;-66
2024/02/23 02:11:24;;;;;;;;;;;3.80;99.90;;;-146.41;100.00;57768.22;5044350;28;2710;-67
2024/02/23 02:13:51;;;;;;;;;;;3.90;99.90;;;-146.41;100.00;57768.22;5041477;28;1306;-66
2024/02/23 02:16:18;;;;;;;;;;;4.00;99.90;;;-146.41;100.00;57768.22;5044819;28;1278;-66
2024/02/23 02:18:45;;;;;;;;;;;4.00;99.90;;;-146.41;100.00;57768.22;5041941;28;1344;-66
2024/02/23 02:21:12;;;;;;;;;;;4.00;99.90;;;-146.41;100.00;57768.22;5041804;28;1410;-66
2024/02/23 02:23:40;;;;;;;;;;;4.00;99.90;;;-146.41;100.00;57768.22;5045615;28;1431;-67
2024/02/23 02:26:06;;;;;;;;;;;4.00;99.90;;;-146.41;100.00;57768.22;5041613;28;3032;-66
2024/02/23 02:28:34;;;;;;;;;;;4.00;99.90;;;-146.41;100.00;57768.22;5040293;28;1274;-67
2024/02/23 02:31:01;;;;;;;;;;;4.00;99.90;;;-146.41;100.00;57768.22;5044077;28;1910;-66
2024/02/23 02:33:27;;;;;;;;;;;3.90;99.90;;;-146.41;100.00;57768.22;5058358;28;1286;-67
2024/02/23 02:35:54;;;;;;;;;;;4.00;99.90;;;-146.41;100.00;57768.22;5039291;28;1465;-67
2024/02/23 02:38:21;;;;;;;;;;;3.90;99.90;;;-146.41;100.00;57768.22;5046531;28;1394;-67
2024/02/23 02:40:48;;;;;;;;;;;4.00;99.90;;;-146.41;100.00;57768.22;5041579;28;2476;-67
2024/02/23 02:43:15;;;;;;;;;;;4.00;99.90;;;-146.41;100.00;57768.22;5041185;28;1397;-67
2024/02/23 02:45:42;;;;;;;;;;;4.00;99.90;;;-146.41;100.00;57768.22;5044212;28;2622;-67
2024/02/23 02:48:08;;;;;;;;;;;4.00;99.90;;;-146.41;100.00;57768.22;5043831;28;1118;-67
2024/02/23 02:50:35;;;;;;;;;;;4.00;99.90;;;-146.41;100.00;57768.22;5043837;28;1934;-67
2024/02/23 02:53:02;;;;;;;;;;;4.00;99.90;;;-146.41;100.00;57768.22;5041656;28;1193;-67
2024/02/23 02:55:30;;;;;;;;;;;4.00;99.90;;;-146.41;100.00;57768.22;5045273;28;1298;-67
2024/02/23 02:57:58;;;;;;;;;;;4.00;99.90;;;-146.41;100.00;57768.22;5058837;28;1944;-66
2024/02/23 03:00:25;;;;;;;;;;;4.00;99.90;;;-146.41;100.00;57768.22;5043219;28;1284;-67
2024/02/23 03:02:52;;;;;;;;;;;4.00;99.90;;;-146.41;100.00;57768.22;5038477;28;1053;-67
2024/02/23 03:05:19;;;;;;;;;;;4.00;99.90;;;-146.41;100.00;57768.22;5041109;28;1943;-66
2024/02/23 03:07:46;;;;;;;;;;;4.10;99.90;;;-146.41;100.00;57768.22;5040848;28;1910;-67
2024/02/23 03:10:13;;;;;;;;;;;4.10;99.90;;;-146.41;100.00;57768.22;5045871;28;1343;-67
2024/02/23 03:12:40;;;;;;;;;;;4.10;99.90;;;-146.41;100.00;57768.22;5041226;28;3200;-67
2024/02/23 03:15:08;;;;;;;;;;;4.10;99.90;;;-146.41;100.00;57768.22;5040320;28;1273;-67
2024/02/23 03:17:35;;;;;;;;;;;4.10;99.90;;;-146.41;100.00;57768.22;5040028;28;1309;-67
2024/02/23 03:20:09;;;;;;;;;;;4.20;99.90;;;-146.41;100.00;57768.22;5041992;28;1382;-67
2024/02/23 03:22:39;;;;;;;;;;;4.20;99.90;;;-146.41;100.00;57768.22;5040320;28;1868;-66
2024/02/23 03:25:09;;;;;;;;;;;4.20;99.90;;;-146.41;100.00;57768.22;5043534;28;1334;-66
2024/02/23 03:27:37;;;;;;;;;;;4.20;99.90;;;-146.41;100.00;57768.22;5036763;28;2667;-67
2024/02/23 03:30:04;;;;;;;;;;;4.20;99.90;;;-146.41;100.00;57768.22;5043386;28;1337;-67
2024/02/23 03:32:36;;;;;;;;;;;4.30;99.90;;;-146.41;100.00;57768.22;5041605;28;1906;-67
2024/02/23 03:35:04;;;;;;;;;;;4.20;99.90;;;-146.41;100.00;57768.22;5040558;28;1392;-67
2024/02/23 03:37:31;;;;;;;;;;;4.20;99.90;;;-146.41;100.00;57768.22;5038114;28;1896;-67
2024/02/23 03:39:57;;;;;;;;;;;4.30;99.90;;;-146.41;100.00;57768.22;5039920;28;1355;-67
2024/02/23 03:42:24;;;;;;;;;;;4.20;99.90;;;-146.41;100.00;57768.22;5039934;28;1460;-67
2024/02/23 03:44:51;;;;;;;;;;;4.20;99.90;;;-146.41;100.00;57768.22;5038335;28;1242;-67
2024/02/23 03:47:18;;;;;;;;;;;4.20;99.90;;;-146.41;100.00;57768.22;5043490;28;1298;-67
2024/02/23 03:49:45;;;;;;;;;;;4.20;99.90;;;-146.41;100.00;57768.22;5054885;28;1607;-67
2024/02/23 03:52:11;;;;;;;;;;;4.20;99.90;;;-146.41;100.00;57768.22;5038972;28;3618;-67
2024/02/23 03:54:38;;;;;;;;;;;4.20;99.90;;;-146.41;100.00;57768.22;5038891;28;1449;-67
2024/02/23 03:57:05;;;;;;;;;;;4.20;99.90;;;-146.41;100.00;57768.22;5039318;28;1652;-67
2024/02/23 03:59:32;;;;;;;;;;;4.10;99.90;;;-146.41;100.00;57768.22;5039767;28;1957;-67
2024/02/23 04:01:59;;;;;;;;;;;4.10;99.90;;;-146.41;100.00;57768.22;5033411;28;1312;-66
2024/02/23 04:04:26;;;;;;;;;;;4.10;99.90;;;-146.41;100.00;57768.22;5038202;28;2019;-67
2024/02/23 04:06:52;;;;;;;;;;;4.20;99.90;;;-146.41;100.00;57768.22;5037436;28;1329;-67
2024/02/23 04:09:20;;;;;;;;;;;4.20;99.90;;;-146.41;100.00;57768.22;5052683;28;1329;-67
2024/02/23 04:11:48;;;;;;;;;;;4.20;99.90;;;-146.41;100.00;57768.22;5036461;28;1922;-67
2024/02/23 04:14:15;;;;;;;;;;;4.20;99.90;;;-146.41;100.00;57768.22;5039978;28;1234;-67
2024/02/23 04:16:42;;;;;;;;;;;4.20;99.90;;;-146.41;100.00;57768.22;5039598;28;1273;-67
2024/02/23 04:19:09;;;;;;;;;;;4.10;99.90;;;-146.41;100.00;57768.22;5039090;28;1990;-67
2024/02/23 04:21:39;;;;;;;;;;;4.10;99.90;;;-146.41;100.00;57768.22;5039653;28;1414;-66
2024/02/23 04:24:07;;;;;;;;;;;4.10;99.90;;;-146.41;100.00;57768.22;5040985;28;1242;-66
2024/02/23 04:26:34;;;;;;;;;;;4.10;99.90;;;-146.41;100.00;57768.22;5037614;28;1408;-67
2024/02/23 04:29:00;;;;;;;;;;;4.10;99.90;;;-146.41;100.00;57768.22;5038526;28;1404;-67
2024/02/23 04:31:27;;;;;;;;;;;4.10;99.90;;;-146.41;100.00;57768.22;5038276;28;1977;-67
2024/02/23 04:33:54;;;;;;;;;;;4.10;99.90;;;-146.41;100.00;57768.22;5041115;28;2946;-67
2024/02/23 04:36:21;;;;;;;;;;;4.00;99.90;;;-146.41;100.00;57768.22;5040066;28;1376;-67
2024/02/23 04:38:48;;;;;;;;;;;4.00;99.90;;;-146.41;100.00;57768.22;5038055;28;1307;-67
2024/02/23 04:41:19;;;;;;;;;;;4.10;99.90;;;-146.41;100.00;57768.22;5041140;28;1367;-67
2024/02/23 04:43:46;;;;;;;;;;;4.00;99.90;;;-146.41;100.00;57768.22;5038722;28;2630;-67
2024/02/23 04:46:13;;;;;;;;;;;4.00;99.90;;;-146.41;100.00;57768.22;5039556;28;2449;-67
2024/02/23 04:48:40;;;;;;;;;;;4.00;99.90;;;-146.41;100.00;57768.22;5042146;28;2650;-67
2024/02/23 04:51:09;;;;;;;;;;;4.00;99.90;;;-146.41;100.00;57768.22;5039719;28;1898;-67
2024/02/23 04:53:37;;;;;;;;;;;4.00;99.90;;;-146.41;100.00;57768.22;5039289;28;1753;-68
2024/02/23 04:56:05;;;;;;;;;;;4.10;99.90;;;-146.41;100.00;57768.22;5037445;28;1204;-67
2024/02/23 04:58:32;;;;;;;;;;;4.00;99.90;;;-146.41;100.00;57768.22;5050013;28;1129;-67
2024/02/23 05:00:59;;;;;;;;;;;4.00;99.90;;;-146.41;100.00;57768.22;5039173;28;1636;-67
2024/02/23 05:03:26;;;;;;;;;;;4.00;99.90;;;-146.41;100.00;57768.22;5037635;28;2127;-67
2024/02/23 05:05:53;;;;;;;;;;;4.00;99.90;;;-146.41;100.00;57768.22;5039666;28;1205;-67
2024/02/23 05:08:21;;;;;;;;;;;3.90;99.90;;;-146.41;100.00;57768.22;5038220;28;1310;-67
2024/02/23 05:10:48;;;;;;;;;;;3.90;99.90;;;-146.41;100.00;57768.22;5036295;28;1906;-67
2024/02/23 05:13:14;;;;;;;;;;;3.90;99.90;;;-146.41;100.00;57768.22;5037030;28;1254;-67
2024/02/23 05:15:41;;;;;;;;;;;3.90;99.90;;;-146.41;100.00;57768.22;5040399;28;3211;-67
2024/02/23 05:18:08;;;;;;;;;;;3.90;99.90;;;-146.41;100.00;57768.22;5039476;28;1381;-67
2024/02/23 05:20:35;;;;;;;;;;;3.90;99.90;;;-146.41;100.00;57768.22;5038338;28;1450;-67
2024/02/23 05:23:02;;;;;;;;;;;4.00;99.90;;;-146.41;100.00;57768.22;5040959;28;1344;-67
2024/02/23 05:25:29;;;;;;;;;;;3.90;99.90;;;-146.41;100.00;57768.22;5039002;28;1679;-67
2024/02/23 05:27:56;;;;;;;;;;;4.00;99.90;;;-146.41;100.00;57768.22;5040633;28;1269;-67
2024/02/23 05:30:23;;;;;;;;;;;3.90;99.90;;;-146.41;100.00;57768.22;5043468;28;2135;-67
2024/02/23 05:32:50;;;;;;;;;;;3.90;99.90;;;-146.41;100.00;57768.22;5039442;28;1899;-67
2024/02/23 05:35:17;;;;;;;;;;;3.90;99.90;;;-146.41;100.00;57768.22;5039329;28;1347;-67
2024/02/23 05:37:44;;;;;;;;;;;3.90;99.90;;;-146.41;100.00;57768.22;5041302;28;1320;-67
2024/02/23 05:40:11;;;;;;;;;;;3.90;99.90;;;-146.41;100.00;57768.22;5037717;28;1390;-66
2024/02/23 05:42:38;;;;;;;;;;;3.90;99.90;;;-146.41;100.00;57768.22;5039049;28;1238;-67
2024/02/23 05:45:08;;;;;;;;;;;3.90;99.90;;;-146.41;100.00;57768.22;5038389;28;1980;-67
2024/02/23 05:47:36;;;;;;;;;;;3.80;99.90;;;-146.41;100.00;57768.22;5037148;28;1370;-67
2024/02/23 05:50:05;;;;;;;;;;;3.80;99.90;;;-146.41;100.00;57768.22;5040417;28;1249;-67
2024/02/23 05:52:32;;;;;;;;;;;3.80;99.90;;;-146.41;100.00;57768.22;5040829;28;1953;-67
2024/02/23 05:55:00;;;;;;;;;;;3.80;99.90;;;-146.41;100.00;57768.22;5039862;28;1329;-66
2024/02/23 05:57:27;;;;;;;;;;;3.90;99.90;;;-146.41;100.00;57768.22;5036265;28;3060;-67
2024/02/23 05:59:55;;;;;;;;;;;3.90;99.90;;;-146.41;100.00;57768.22;5040138;28;1723;-67
2024/02/23 06:02:22;;;;;;;;;;;3.80;99.90;;;-146.41;100.00;57768.22;5034056;28;1399;-68
2024/02/23 06:04:49;;;;;;;;;;;3.90;99.90;;;-146.41;100.00;57768.22;5038140;28;1233;-67
2024/02/23 06:07:16;;;;;;;;;;;3.80;99.90;;;-146.41;100.00;57768.22;5040008;28;1342;-67
2024/02/23 06:09:43;;;;;;;;;;;3.80;99.90;;;-146.41;100.00;57768.22;5043502;28;1500;-67
2024/02/23 06:12:10;;;;;;;;;;;3.80;99.90;;;-146.41;100.00;57768.22;5036168;28;2482;-67
2024/02/23 06:14:37;;;;;;;;;;;3.80;99.90;;;-146.41;100.00;57768.22;5039148;28;1345;-68
2024/02/23 06:17:06;;;;;;;;;;;3.80;99.90;;;-146.41;100.00;57768.22;5052829;28;1712;-66
2024/02/23 06:19:33;;;;;;;;;;;3.80;99.90;;;-146.41;100.00;57768.22;5035614;28;1525;-67
2024/02/23 06:22:00;;;;;;;;;;;3.80;99.90;;;-146.41;100.00;57768.22;5036574;28;1392;-68
2024/02/23 06:24:27;;;;;;;;;;;3.80;99.90;;;-146.41;100.00;57768.22;5039480;28;1850;-68
2024/02/23 06:26:53;;;;;;;;;;;3.80;99.90;;;-146.41;100.00;57768.22;5043169;28;2136;-67
2024/02/23 06:29:20;;;;;;;;;;;3.80;99.90;;;-146.41;100.00;57768.22;5039798;28;1236;-67
2024/02/23 06:31:50;;;;;;;;;;;3.80;99.90;;;-146.41;100.00;57768.22;5041025;28;1979;-67
2024/02/23 06:34:17;;;;;;;;;;;3.80;99.90;;;-146.41;100.00;57768.22;5041342;28;1134;-67
2024/02/23 06:36:44;;;;;;;;;;;3.80;99.90;;;-146.41;100.00;57768.22;5037584;28;3214;-67
2024/02/23 06:39:10;;;;;;;;;;;3.80;99.90;;;-146.41;100.00;57768.22;5039392;28;2600;-67
2024/02/23 06:41:41;;;;;;;;;;;3.80;99.90;;;-146.41;100.00;57768.22;5040099;28;2690;-67
2024/02/23 06:44:08;;;;;;;;;;;3.80;99.90;;;-146.41;100.00;57768.22;5032110;28;2625;-66
2024/02/23 06:46:35;;;;;;;;;;;3.80;99.90;;;-146.41;100.00;57768.22;5037604;28;2816;-67
2024/02/23 06:49:01;;;;;;;;;;;3.70;99.90;;;-146.41;100.00;57768.22;5038071;28;1702;-67
2024/02/23 06:51:28;;;;;;;;;;;3.70;99.90;;;-146.41;100.00;57768.22;5043491;28;1902;-66
2024/02/23 06:53:56;;;;;;;;;;;3.70;99.90;;;-146.41;100.00;57768.22;5040981;28;1082;-67
2024/02/23 06:56:23;;;;;;;;;;;3.70;99.90;;;-146.41;100.00;57768.22;5035040;28;1141;-67
2024/02/23 06:58:50;;;;;;;;;;;3.80;99.90;;;-146.41;100.00;57768.22;5042540;28;2010;-67
2024/02/23 07:01:17;;;;;;;;;;;3.70;99.90;;;-146.41;100.00;57768.22;5041725;28;1452;-67
2024/02/23 07:03:45;;;;;;;;;;;3.70;99.90;;;-146.41;100.00;57768.22;5038072;28;1502;-67
2024/02/23 07:06:12;;;;;;;;;;;3.80;99.90;;;-146.41;100.00;57768.22;5044557;28;1357;-67
2024/02/23 07:08:39;;;;;;;;;;;3.80;99.90;;;-146.41;100.00;57768.22;5040233;28;1369;-67
2024/02/23 07:11:05;;;;;;;;;;;3.80;99.90;;;-146.41;100.00;57768.22;5039569;28;2592;-67
2024/02/23 07:13:33;;;;;;;;;;;3.80;99.90;;;-146.41;100.00;57768.22;5039892;28;1898;-67
2024/02/23 07:16:00;;;;;;;;;;;3.90;99.90;;;-146.41;100.00;57768.22;5042160;28;1326;-67
2024/02/23 07:18:27;;;;;;;;;;;3.90;99.90;;;-146.41;100.00;57768.22;5040761;28;988;-67
2024/02/23 07:20:54;;;;;;;;;;;4.00;99.90;;;-146.41;100.00;57768.22;5041651;28;3155;-67
2024/02/23 07:23:22;;;;;;;;;;;3.90;99.90;;;-146.41;100.00;57768.22;5039176;28;2603;-67
2024/02/23 07:25:50;;;;;;;;;;;4.00;99.90;;;-146.41;100.00;57768.22;5040732;28;2597;-67
2024/02/23 07:28:19;;;;;;;;;;;4.00;99.90;;;-146.41;100.00;57768.22;5041331;28;1329;-67
2024/02/23 07:30:46;;;;;;;;;;;4.00;99.90;;;-146.41;100.00;57768.22;5036320;28;1520;-67
2024/02/23 07:33:13;;;;;;;;;;;4.10;99.90;;;-146.41;100.00;57768.22;5042940;28;1993;-66
2024/02/23 07:35:40;;;;;;;;;;;4.10;99.90;;;-146.41;100.00;57768.22;5044185;28;1511;-67
2024/02/23 07:38:07;;;;;;;;;;;4.10;99.90;;;-146.41;100.00;57768.22;5041003;28;1533;-66
2024/02/23 07:40:33;;;;;;;;;;;4.10;99.90;;;-146.41;100.00;57768.22;5042749;28;2181;-67
2024/02/23 07:43:00;;;;;;;;;;;4.00;99.90;;;-146.41;100.00;57768.22;5039184;28;1150;-67
2024/02/23 07:45:27;;;;;;;;;;;4.10;99.90;;;-146.41;100.00;57768.22;5040434;28;1485;-68
2024/02/23 07:47:54;;;;;;;;;;;4.00;99.90;;;-146.41;100.00;57768.22;5043489;28;1421;-67
2024/02/23 07:50:21;;;;;;;;;;;4.00;99.90;;;-146.41;100.00;57768.22;5041741;28;1446;-67
2024/02/23 07:52:47;;;;;;;;;;;4.10;99.90;;;-146.41;100.00;57768.22;5041699;28;2370;-67
2024/02/23 07:55:14;;;;;;;;;;;4.10;99.90;;;-146.41;100.00;57768.22;5041774;28;1346;-67
2024/02/23 07:57:43;;;;;;;;;;;4.10;99.90;;;-146.41;100.00;57768.22;5038987;28;1589;-67
2024/02/23 08:00:10;;;;;;;;;;;4.20;99.90;;;-146.41;100.00;57768.22;5038469;28;1383;-66
2024/02/23 08:02:38;;;;;;;;;;;4.30;99.90;;;-146.41;100.00;57768.22;5037277;28;1752;-67
2024/02/23 08:05:07;;;;;;;;;;;4.40;99.90;;;-146.41;100.00;57768.22;5041595;28;3093;-67
2024/02/23 08:07:33;;;;;;;;;;;4.90;99.90;;;-146.41;100.00;57768.22;5039488;28;2865;-67
2024/02/23 08:10:02;;;;;;;;;;;5.20;99.90;;;-146.41;100.00;57768.22;5039200;28;1426;-67
2024/02/23 08:12:29;;;;;;;;;;;4.90;99.90;;;-146.41;100.00;57768.22;5036889;28;1906;-67
2024/02/23 08:14:56;;;;;;;;;;;4.90;99.90;;;-146.41;100.00;57768.22;5039070;28;1424;-67
2024/02/23 08:17:23;;;;;;;;;;;4.90;99.90;;;-146.41;100.00;57768.22;5040137;28;1455;-67
2024/02/23 08:19:50;;;;;;;;;;;4.70;99.90;;;-146.41;100.00;57768.22;5039748;28;1193;-67
2024/02/23 08:22:17;;;;;;;;;;;4.80;99.90;;;-146.41;100.00;57768.22;5038945;28;2174;-67
2024/02/23 08:24:44;;;;;;;;;;;5.00;99.90;;;-146.41;100.00;57768.22;5039654;28;1077;-67
2024/02/23 08:27:11;;;;;;;;;;;4.90;99.90;;;-146.41;100.00;57768.22;5042560;28;1101;-68
2024/02/23 08:29:38;;;;;;;;;;;5.00;99.90;;;-146.41;100.00;57768.22;5040475;28;1339;-67
2024/02/23 08:32:06;;;;;;;;;;;5.70;99.90;;;-146.41;100.00;57768.22;5040166;28;1985;-67
2024/02/23 08:34:34;;;;;;;;;;;6.20;99.90;;;-146.41;100.00;57768.22;5041981;28;1286;-67
2024/02/23 08:37:03;;;;;;;;;;;5.90;99.90;;;-146.41;100.00;57768.22;5040246;28;2523;-67
2024/02/23 08:39:30;;;;;;;;;;;5.40;99.90;;;-146.41;100.00;57768.22;5038610;28;1208;-67
2024/02/23 08:41:56;;;;;;;;;;;5.40;99.90;;;-146.41;100.00;57768.22;5038028;28;1284;-67
2024/02/23 08:44:24;;;;;;;;;;;5.20;99.90;;;-146.41;100.00;57768.22;5038638;28;4032;-67
2024/02/23 08:46:50;;;;;;;;;;;5.20;99.90;;;-146.41;100.00;57768.22;5039523;28;1002;-67
2024/02/23 08:49:17;;;;;;;;;;;5.40;99.90;;;-146.41;100.00;57768.22;5038029;28;1122;-66
2024/02/23 08:51:44;;;;;;;;;;;5.40;99.90;;;-146.41;100.00;57768.22;5036527;28;1248;-67
2024/02/23 08:54:11;;;;;;;;;;;5.40;99.90;;;-146.41;100.00;57768.22;5036742;28;1903;-67
2024/02/23 08:56:39;;;;;;;;;;;5.50;99.90;;;-146.41;100.00;57768.22;5039613;28;2428;-68
2024/02/23 08:59:06;;;;;;;;;;;5.40;99.90;;;-146.41;100.00;57768.22;5036110;28;1151;-67
2024/02/23 09:01:33;;;;;;;;;;;5.40;99.90;;;-146.41;100.00;57768.22;5035517;28;1538;-67
2024/02/23 09:04:00;;;;;;;;;;;5.40;99.90;;;-146.41;100.00;57768.22;5037286;28;1125;-67
2024/02/23 09:06:27;;;;;;;;;;;5.40;99.90;;;-146.41;100.00;57768.22;5037905;28;1359;-67
2024/02/23 09:08:54;;;;;;;;;;;5.50;99.90;;;-146.41;100.00;57768.22;5038611;28;1074;-67
2024/02/23 09:11:22;;;;;;;;;;;5.60;99.90;;;-146.41;100.00;57768.22;5037526;28;2448;-66
2024/02/23 09:13:48;;;;;;;;;;;5.70;99.90;;;-146.41;100.00;57768.22;5037343;28;1971;-68
2024/02/23 09:16:15;;;;;;;;;;;5.80;99.90;;;-146.41;100.00;57768.22;5038995;28;1069;-67
2024/02/23 09:18:42;;;;;;;;;;;5.80;99.90;;;-146.41;100.00;57768.22;5036615;28;1010;-66
2024/02/23 09:21:09;;;;;;;;;;;5.70;99.90;;;-146.41;100.00;57768.22;5052555;28;3651;-66
2024/02/23 09:23:36;;;;;;;;;;;5.70;99.90;;;-146.41;100.00;57768.22;5042630;28;2404;-67
2024/02/23 09:26:11;;;;;;;;;;;5.70;99.90;;;-146.41;100.00;57768.22;5042679;28;1655;-67
2024/02/23 09:28:40;;;;;;;;;;;5.70;99.90;;;-146.41;100.00;57768.22;5035632;28;1134;-67
2024/02/23 09:31:07;;;;;;;;;;;5.70;99.90;;;-146.41;100.00;57768.22;5041356;28;1363;-67
2024/02/23 09:33:34;;;;;;;;;;;5.70;99.90;;;-146.41;100.00;57768.22;5043255;28;2009;-67
2024/02/23 09:36:01;;;;;;;;;;;5.70;99.90;;;-146.41;100.00;57768.22;5038192;28;1220;-67
2024/02/23 09:38:28;;;;;;;;;;;5.70;99.90;;;-146.41;100.00;57768.22;5041714;28;1971;-67
2024/02/23 09:40:55;;;;;;;;;;;5.60;99.90;;;-146.41;100.00;57768.22;5040838;28;1394;-67
2024/02/23 09:43:22;;;;;;;;;;;5.60;99.90;;;-146.41;100.00;57768.22;5037087;28;1159;-67
2024/02/23 09:45:52;;;;;;;;;;;5.50;99.90;;;-146.41;100.00;57768.22;5034725;28;1176;-67
2024/02/23 09:48:20;;;;;;;;;;;5.50;99.90;;;-146.41;100.00;57768.22;5039977;28;1334;-67
2024/02/23 09:50:48;;;;;;;;;;;5.60;99.90;;;-146.41;100.00;57768.22;5040049;28;1382;-67
2024/02/23 09:53:15;;;;;;;;;;;5.60;99.90;;;-146.41;100.00;57768.22;5041088;28;1976;-68
2024/02/23 09:55:43;;;;;;;;;;;5.70;99.90;;;-146.41;100.00;57768.22;5034913;28;1001;-67
2024/02/23 09:58:10;;;;;;;;;;;5.80;99.90;;;-146.41;100.00;57768.22;5052483;28;1977;-68
2024/02/23 10:00:38;;;;;;;;;;;5.70;99.90;;;-146.41;100.00;57768.22;5037764;28;1770;-67
2024/02/23 10:03:05;;;;;;;;;;;5.60;99.90;;;-146.41;100.00;57768.22;5034803;28;1080;-68
2024/02/23 10:05:32;;;;;;;;;;;5.60;99.90;;;-146.41;100.00;57768.22;5036913;28;1099;-67
2024/02/23 10:08:04;;;;;;;;;;;5.70;99.90;;;-146.41;100.00;57768.22;5037035;28;2511;-67
2024/02/23 10:10:35;;;;;;;;;;;5.70;99.90;;;-146.41;100.00;57768.22;5036511;28;1244;-67
2024/02/23 10:13:05;;;;;;;;;;;5.60;99.90;;;-146.41;100.00;57768.22;5040184;28;1910;-67
2024/02/23 10:15:31;;;;;;;;;;;5.50;99.90;;;-146.41;100.00;57768.22;5040736;28;1139;-67
2024/02/23 10:17:58;;;;;;;;;;;5.40;99.90;;;-146.41;100.00;57768.22;5039968;28;1080;-67
2024/02/23 10:20:25;;;;;;;;;;;5.30;99.90;;;-146.41;100.00;57768.22;5037739;28;2047;-67
2024/02/23 10:22:53;;;;;;;;;;;5.30;99.90;;;-146.41;100.00;57768.22;5034354;28;1924;-67
2024/02/23 10:25:21;;;;;;;;;;;5.40;99.90;;;-146.41;100.00;57768.22;5036699;28;1080;-68
2024/02/23 10:27:48;;;;;;;;;;;5.40;99.90;;;-146.41;100.00;57768.22;5039596;28;1174;-68
2024/02/23 10:30:15;;;;;;;;;;;5.60;99.90;;;-146.41;100.00;57768.22;5041579;28;1375;-67
2024/02/23 10:32:42;;;;;;;;;;;5.70;99.90;;;-146.41;100.00;57768.22;5042786;28;1898;-67
2024/02/23 10:35:13;;;;;;;;;;;5.70;99.90;;;-146.41;100.00;57768.22;5043519;28;2106;-67
2024/02/23 10:37:42;;;;;;;;;;;5.70;99.90;;;-146.41;100.00;57768.22;5044598;28;1344;-67
2024/02/23 10:40:12;;;;;;;;;;;5.70;99.90;;;-146.41;100.00;57768.22;5037920;28;1449;-67
2024/02/23 10:42:40;;;;;;;;;;;5.90;99.90;;;-146.41;100.00;57768.22;5036701;28;2559;-67
2024/02/23 10:45:08;;;;;;;;;;;6.20;99.90;;;-146.41;100.00;57768.22;5032471;28;1393;-67
2024/02/23 10:47:36;;;;;;;;;;;6.20;99.90;;;-146.41;100.00;57768.22;5045636;28;1519;-67
2024/02/23 10:50:04;;;;;;;;;;;6.20;99.90;;;-146.41;100.00;57768.22;5047430;28;1450;-67
2024/02/23 10:52:33;;;;;;;;;;;6.10;99.90;;;-146.41;100.00;57768.22;5043029;28;1910;-67
2024/02/23 10:55:04;;;;;;;;;;;6.20;99.90;;;-146.41;100.00;57768.22;5042687;28;1272;-67
2024/02/23 10:57:34;;;;;;;;;;;6.20;99.90;;;-146.41;100.00;57768.22;5041472;28;3269;-68
2024/02/23 11:00:02;;;;;;;;;;;6.00;99.90;;;-146.41;100.00;57768.22;5044486;28;1379;-68
2024/02/23 11:02:30;;;;;;;;;;;6.20;99.90;;;-146.41;100.00;57768.22;5039270;28;1159;-67
2024/02/23 11:04:59;;;;;;;;;;;6.20;99.90;;;-146.41;100.00;57768.22;5042321;28;1064;-67
2024/02/23 11:07:28;;;;;;;;;;;6.30;99.90;;;-146.41;100.00;57768.22;5038435;28;1199;-67
2024/02/23 11:09:58;;;;;;;;;;;6.30;99.90;;;-146.41;100.00;57768.22;5041569;28;1370;-67